sensor_id;sensor_type;location;lat;lon;timestamp;P1;durP1;ratioP1;P2;durP2;ratioP2
24273;SDS011;12392;42.678;23.380;2023-04-15T00:00:45;4.55;;;1.42;;
24273;SDS011;12392;42.678;23.380;2023-04-15T00:03:11;1.83;;;0.95;;
24273;SDS011;12392;42.678;23.380;2023-04-15T00:05:37;2.65;;;1.23;;
24273;SDS011;12392;42.678;23.380;2023-04-15T00:08:03;2.58;;;1.02;;
24273;SDS011;12392;42.678;23.380;2023-04-15T00:10:29;1.98;;;1.08;;
24273;SDS011;12392;42.678;23.380;2023-04-15T00:12:55;1.98;;;1.13;;
24273;SDS011;12392;42.678;23.380;2023-04-15T00:15:20;5.57;;;1.30;;
24273;SDS011;12392;42.678;23.380;2023-04-15T00:17:48;2.22;;;1.10;;
24273;SDS011;12392;42.678;23.380;2023-04-15T00:20:15;2.17;;;1.05;;
24273;SDS011;12392;42.678;23.380;2023-04-15T00:22:40;4.15;;;1.30;;
24273;SDS011;12392;42.678;23.380;2023-04-15T00:25:06;2.45;;;1.25;;
24273;SDS011;12392;42.678;23.380;2023-04-15T00:27:32;4.82;;;1.38;;
24273;SDS011;12392;42.678;23.380;2023-04-15T00:29:58;4.68;;;2.72;;
24273;SDS011;12392;42.678;23.380;2023-04-15T00:32:23;7.53;;;3.67;;
24273;SDS011;12392;42.678;23.380;2023-04-15T00:34:49;11.55;;;4.88;;
24273;SDS011;12392;42.678;23.380;2023-04-15T00:37:15;9.98;;;4.53;;
24273;SDS011;12392;42.678;23.380;2023-04-15T00:39:40;10.18;;;4.13;;
24273;SDS011;12392;42.678;23.380;2023-04-15T00:42:06;9.48;;;4.88;;
24273;SDS011;12392;42.678;23.380;2023-04-15T00:44:32;12.35;;;4.55;;
24273;SDS011;12392;42.678;23.380;2023-04-15T00:46:59;11.23;;;4.95;;
24273;SDS011;12392;42.678;23.380;2023-04-15T00:49:24;12.32;;;5.03;;
24273;SDS011;12392;42.678;23.380;2023-04-15T00:51:51;6.95;;;4.22;;
24273;SDS011;12392;42.678;23.380;2023-04-15T00:54:16;11.70;;;4.72;;
24273;SDS011;12392;42.678;23.380;2023-04-15T00:56:42;11.80;;;5.25;;
24273;SDS011;12392;42.678;23.380;2023-04-15T00:59:08;9.88;;;4.43;;
24273;SDS011;12392;42.678;23.380;2023-04-15T01:01:34;16.42;;;4.35;;
24273;SDS011;12392;42.678;23.380;2023-04-15T01:04:00;6.72;;;3.22;;
24273;SDS011;12392;42.678;23.380;2023-04-15T01:06:27;6.20;;;2.80;;
24273;SDS011;12392;42.678;23.380;2023-04-15T01:08:53;4.78;;;2.13;;
24273;SDS011;12392;42.678;23.380;2023-04-15T01:11:19;5.35;;;2.50;;
24273;SDS011;12392;42.678;23.380;2023-04-15T01:13:46;4.32;;;2.22;;
24273;SDS011;12392;42.678;23.380;2023-04-15T01:16:12;6.05;;;2.22;;
24273;SDS011;12392;42.678;23.380;2023-04-15T01:18:38;3.20;;;2.00;;
24273;SDS011;12392;42.678;23.380;2023-04-15T01:21:04;5.57;;;1.85;;
24273;SDS011;12392;42.678;23.380;2023-04-15T01:23:31;4.65;;;2.03;;
24273;SDS011;12392;42.678;23.380;2023-04-15T01:25:58;6.45;;;1.75;;
24273;SDS011;12392;42.678;23.380;2023-04-15T01:28:24;4.43;;;1.80;;
24273;SDS011;12392;42.678;23.380;2023-04-15T01:30:50;3.05;;;1.95;;
24273;SDS011;12392;42.678;23.380;2023-04-15T01:33:29;5.07;;;2.08;;
24273;SDS011;12392;42.678;23.380;2023-04-15T01:35:55;4.38;;;2.00;;
24273;SDS011;12392;42.678;23.380;2023-04-15T01:38:21;3.25;;;2.03;;
24273;SDS011;12392;42.678;23.380;2023-04-15T01:40:47;3.45;;;2.15;;
24273;SDS011;12392;42.678;23.380;2023-04-15T01:43:12;3.40;;;1.77;;
24273;SDS011;12392;42.678;23.380;2023-04-15T01:45:39;4.32;;;2.40;;
24273;SDS011;12392;42.678;23.380;2023-04-15T01:48:05;7.00;;;1.75;;
24273;SDS011;12392;42.678;23.380;2023-04-15T01:50:31;4.57;;;1.50;;
24273;SDS011;12392;42.678;23.380;2023-04-15T01:52:57;5.28;;;1.65;;
24273;SDS011;12392;42.678;23.380;2023-04-15T01:55:22;2.70;;;1.40;;
24273;SDS011;12392;42.678;23.380;2023-04-15T01:57:48;2.72;;;1.40;;
24273;SDS011;12392;42.678;23.380;2023-04-15T02:00:14;3.28;;;1.60;;
24273;SDS011;12392;42.678;23.380;2023-04-15T02:02:40;2.92;;;1.63;;
24273;SDS011;12392;42.678;23.380;2023-04-15T02:05:06;4.72;;;1.33;;
24273;SDS011;12392;42.678;23.380;2023-04-15T02:07:32;1.67;;;1.55;;
24273;SDS011;12392;42.678;23.380;2023-04-15T02:09:57;4.70;;;1.50;;
24273;SDS011;12392;42.678;23.380;2023-04-15T02:12:23;2.90;;;1.58;;
24273;SDS011;12392;42.678;23.380;2023-04-15T02:14:49;2.38;;;1.42;;
24273;SDS011;12392;42.678;23.380;2023-04-15T02:17:15;1.95;;;1.33;;
24273;SDS011;12392;42.678;23.380;2023-04-15T02:19:41;5.18;;;1.60;;
24273;SDS011;12392;42.678;23.380;2023-04-15T02:22:07;4.47;;;1.77;;
24273;SDS011;12392;42.678;23.380;2023-04-15T02:24:33;4.10;;;1.60;;
24273;SDS011;12392;42.678;23.380;2023-04-15T02:26:59;2.22;;;1.50;;
24273;SDS011;12392;42.678;23.380;2023-04-15T02:29:25;6.40;;;1.88;;
24273;SDS011;12392;42.678;23.380;2023-04-15T02:31:51;8.80;;;2.17;;
24273;SDS011;12392;42.678;23.380;2023-04-15T02:34:17;4.18;;;2.17;;
24273;SDS011;12392;42.678;23.380;2023-04-15T02:36:42;3.63;;;1.80;;
24273;SDS011;12392;42.678;23.380;2023-04-15T02:39:08;4.30;;;1.95;;
24273;SDS011;12392;42.678;23.380;2023-04-15T02:41:34;3.17;;;1.90;;
24273;SDS011;12392;42.678;23.380;2023-04-15T02:44:00;4.45;;;2.20;;
24273;SDS011;12392;42.678;23.380;2023-04-15T02:46:26;6.43;;;2.97;;
24273;SDS011;12392;42.678;23.380;2023-04-15T02:48:52;5.25;;;3.45;;
24273;SDS011;12392;42.678;23.380;2023-04-15T02:51:20;7.03;;;4.13;;
24273;SDS011;12392;42.678;23.380;2023-04-15T02:53:47;10.10;;;4.18;;
24273;SDS011;12392;42.678;23.380;2023-04-15T02:56:13;12.88;;;5.30;;
24273;SDS011;12392;42.678;23.380;2023-04-15T02:58:40;10.85;;;5.35;;
24273;SDS011;12392;42.678;23.380;2023-04-15T03:01:06;12.57;;;4.93;;
24273;SDS011;12392;42.678;23.380;2023-04-15T03:03:33;5.90;;;3.60;;
24273;SDS011;12392;42.678;23.380;2023-04-15T03:05:59;7.22;;;2.63;;
24273;SDS011;12392;42.678;23.380;2023-04-15T03:08:24;4.82;;;3.33;;
24273;SDS011;12392;42.678;23.380;2023-04-15T03:10:50;6.65;;;3.13;;
24273;SDS011;12392;42.678;23.380;2023-04-15T03:13:16;7.13;;;2.97;;
24273;SDS011;12392;42.678;23.380;2023-04-15T03:15:42;6.90;;;3.03;;
24273;SDS011;12392;42.678;23.380;2023-04-15T03:18:10;5.07;;;2.90;;
24273;SDS011;12392;42.678;23.380;2023-04-15T03:20:35;4.90;;;2.55;;
24273;SDS011;12392;42.678;23.380;2023-04-15T03:23:01;7.28;;;2.95;;
24273;SDS011;12392;42.678;23.380;2023-04-15T03:25:27;5.47;;;3.10;;
24273;SDS011;12392;42.678;23.380;2023-04-15T03:27:52;9.80;;;3.00;;
24273;SDS011;12392;42.678;23.380;2023-04-15T03:30:18;4.93;;;3.10;;
24273;SDS011;12392;42.678;23.380;2023-04-15T03:32:44;8.60;;;3.03;;
24273;SDS011;12392;42.678;23.380;2023-04-15T03:35:10;7.65;;;2.65;;
24273;SDS011;12392;42.678;23.380;2023-04-15T03:37:35;5.50;;;2.42;;
24273;SDS011;12392;42.678;23.380;2023-04-15T03:40:01;8.55;;;3.33;;
24273;SDS011;12392;42.678;23.380;2023-04-15T03:42:27;5.15;;;2.90;;
24273;SDS011;12392;42.678;23.380;2023-04-15T03:44:52;5.50;;;2.45;;
24273;SDS011;12392;42.678;23.380;2023-04-15T03:47:18;5.35;;;2.92;;
24273;SDS011;12392;42.678;23.380;2023-04-15T03:49:44;6.97;;;3.20;;
24273;SDS011;12392;42.678;23.380;2023-04-15T03:52:10;8.73;;;2.72;;
24273;SDS011;12392;42.678;23.380;2023-04-15T03:54:35;5.50;;;3.05;;
24273;SDS011;12392;42.678;23.380;2023-04-15T03:57:01;6.82;;;3.55;;
24273;SDS011;12392;42.678;23.380;2023-04-15T03:59:27;5.82;;;3.13;;
24273;SDS011;12392;42.678;23.380;2023-04-15T04:01:53;8.13;;;3.72;;
24273;SDS011;12392;42.678;23.380;2023-04-15T04:04:18;6.70;;;2.60;;
24273;SDS011;12392;42.678;23.380;2023-04-15T04:06:44;4.47;;;3.10;;
24273;SDS011;12392;42.678;23.380;2023-04-15T04:09:10;6.90;;;3.40;;
24273;SDS011;12392;42.678;23.380;2023-04-15T04:11:35;8.50;;;3.20;;
24273;SDS011;12392;42.678;23.380;2023-04-15T04:14:01;7.88;;;3.70;;
24273;SDS011;12392;42.678;23.380;2023-04-15T04:16:27;6.32;;;3.30;;
24273;SDS011;12392;42.678;23.380;2023-04-15T04:18:53;6.03;;;3.60;;
24273;SDS011;12392;42.678;23.380;2023-04-15T04:21:18;4.50;;;3.38;;
24273;SDS011;12392;42.678;23.380;2023-04-15T04:23:45;5.13;;;2.88;;
24273;SDS011;12392;42.678;23.380;2023-04-15T04:26:11;6.88;;;3.28;;
24273;SDS011;12392;42.678;23.380;2023-04-15T04:28:36;5.20;;;2.70;;
24273;SDS011;12392;42.678;23.380;2023-04-15T04:31:05;6.22;;;2.88;;
24273;SDS011;12392;42.678;23.380;2023-04-15T04:33:31;9.75;;;2.85;;
24273;SDS011;12392;42.678;23.380;2023-04-15T04:35:57;5.13;;;3.38;;
24273;SDS011;12392;42.678;23.380;2023-04-15T04:38:23;5.28;;;2.95;;
24273;SDS011;12392;42.678;23.380;2023-04-15T04:40:48;7.20;;;3.17;;
24273;SDS011;12392;42.678;23.380;2023-04-15T04:43:14;6.63;;;3.40;;
24273;SDS011;12392;42.678;23.380;2023-04-15T04:45:40;8.48;;;3.50;;
24273;SDS011;12392;42.678;23.380;2023-04-15T04:48:06;5.55;;;3.13;;
24273;SDS011;12392;42.678;23.380;2023-04-15T04:50:34;4.85;;;2.90;;
24273;SDS011;12392;42.678;23.380;2023-04-15T04:53:00;5.45;;;3.15;;
24273;SDS011;12392;42.678;23.380;2023-04-15T04:55:26;21.13;;;10.60;;
24273;SDS011;12392;42.678;23.380;2023-04-15T04:57:51;34.05;;;16.48;;
24273;SDS011;12392;42.678;23.380;2023-04-15T05:00:17;27.02;;;15.48;;
24273;SDS011;12392;42.678;23.380;2023-04-15T05:02:43;31.42;;;16.95;;
24273;SDS011;12392;42.678;23.380;2023-04-15T05:05:09;26.85;;;15.80;;
24273;SDS011;12392;42.678;23.380;2023-04-15T05:07:36;25.50;;;14.77;;
24273;SDS011;12392;42.678;23.380;2023-04-15T05:10:02;25.02;;;12.63;;
24273;SDS011;12392;42.678;23.380;2023-04-15T05:12:28;17.23;;;10.57;;
24273;SDS011;12392;42.678;23.380;2023-04-15T05:14:54;17.52;;;9.85;;
24273;SDS011;12392;42.678;23.380;2023-04-15T05:17:19;18.75;;;8.90;;
24273;SDS011;12392;42.678;23.380;2023-04-15T05:19:45;18.70;;;9.50;;
24273;SDS011;12392;42.678;23.380;2023-04-15T05:22:10;18.83;;;9.00;;
24273;SDS011;12392;42.678;23.380;2023-04-15T05:24:36;14.48;;;8.40;;
24273;SDS011;12392;42.678;23.380;2023-04-15T05:27:02;16.40;;;8.15;;
24273;SDS011;12392;42.678;23.380;2023-04-15T05:29:28;11.57;;;7.35;;
24273;SDS011;12392;42.678;23.380;2023-04-15T05:31:53;11.45;;;6.35;;
24273;SDS011;12392;42.678;23.380;2023-04-15T05:34:19;10.00;;;5.30;;
24273;SDS011;12392;42.678;23.380;2023-04-15T05:36:45;8.57;;;5.10;;
24273;SDS011;12392;42.678;23.380;2023-04-15T05:39:11;9.10;;;4.32;;
24273;SDS011;12392;42.678;23.380;2023-04-15T05:41:36;6.43;;;4.03;;
24273;SDS011;12392;42.678;23.380;2023-04-15T05:44:02;7.97;;;3.90;;
24273;SDS011;12392;42.678;23.380;2023-04-15T05:46:28;7.28;;;4.00;;
24273;SDS011;12392;42.678;23.380;2023-04-15T05:48:54;6.05;;;3.75;;
24273;SDS011;12392;42.678;23.380;2023-04-15T05:51:19;5.18;;;2.78;;
24273;SDS011;12392;42.678;23.380;2023-04-15T05:53:45;3.97;;;2.75;;
24273;SDS011;12392;42.678;23.380;2023-04-15T05:56:11;6.38;;;3.25;;
24273;SDS011;12392;42.678;23.380;2023-04-15T05:58:37;4.78;;;3.08;;
24273;SDS011;12392;42.678;23.380;2023-04-15T06:01:02;3.30;;;2.60;;
24273;SDS011;12392;42.678;23.380;2023-04-15T06:03:28;4.00;;;2.70;;
24273;SDS011;12392;42.678;23.380;2023-04-15T06:05:54;6.25;;;2.55;;
24273;SDS011;12392;42.678;23.380;2023-04-15T06:08:20;4.10;;;2.90;;
24273;SDS011;12392;42.678;23.380;2023-04-15T06:10:46;6.43;;;2.30;;
24273;SDS011;12392;42.678;23.380;2023-04-15T06:13:12;3.33;;;2.30;;
24273;SDS011;12392;42.678;23.380;2023-04-15T06:15:37;3.45;;;2.05;;
24273;SDS011;12392;42.678;23.380;2023-04-15T06:18:03;3.85;;;1.63;;
24273;SDS011;12392;42.678;23.380;2023-04-15T06:20:29;4.85;;;1.80;;
24273;SDS011;12392;42.678;23.380;2023-04-15T06:22:54;3.35;;;1.50;;
24273;SDS011;12392;42.678;23.380;2023-04-15T06:25:20;12.18;;;2.05;;
24273;SDS011;12392;42.678;23.380;2023-04-15T06:27:46;1.73;;;1.25;;
24273;SDS011;12392;42.678;23.380;2023-04-15T06:30:12;3.63;;;1.88;;
24273;SDS011;12392;42.678;23.380;2023-04-15T06:32:38;6.85;;;2.65;;
24273;SDS011;12392;42.678;23.380;2023-04-15T06:35:03;4.28;;;2.85;;
24273;SDS011;12392;42.678;23.380;2023-04-15T06:37:29;4.93;;;2.08;;
24273;SDS011;12392;42.678;23.380;2023-04-15T06:39:55;4.10;;;1.88;;
24273;SDS011;12392;42.678;23.380;2023-04-15T06:42:21;3.70;;;1.88;;
24273;SDS011;12392;42.678;23.380;2023-04-15T06:44:47;4.05;;;1.92;;
24273;SDS011;12392;42.678;23.380;2023-04-15T06:47:12;3.40;;;1.80;;
24273;SDS011;12392;42.678;23.380;2023-04-15T06:49:39;4.97;;;1.48;;
24273;SDS011;12392;42.678;23.380;2023-04-15T06:52:05;3.17;;;1.20;;
24273;SDS011;12392;42.678;23.380;2023-04-15T06:54:31;6.88;;;1.25;;
24273;SDS011;12392;42.678;23.380;2023-04-15T06:56:56;2.97;;;1.95;;
24273;SDS011;12392;42.678;23.380;2023-04-15T06:59:22;3.38;;;2.10;;
24273;SDS011;12392;42.678;23.380;2023-04-15T07:01:48;4.45;;;1.95;;
24273;SDS011;12392;42.678;23.380;2023-04-15T07:04:13;3.83;;;1.50;;
24273;SDS011;12392;42.678;23.380;2023-04-15T07:06:40;5.07;;;2.67;;
24273;SDS011;12392;42.678;23.380;2023-04-15T07:09:06;5.03;;;3.75;;
24273;SDS011;12392;42.678;23.380;2023-04-15T07:11:32;5.28;;;3.20;;
24273;SDS011;12392;42.678;23.380;2023-04-15T07:13:58;6.38;;;3.35;;
24273;SDS011;12392;42.678;23.380;2023-04-15T07:16:24;6.63;;;3.72;;
24273;SDS011;12392;42.678;23.380;2023-04-15T07:18:50;3.88;;;2.20;;
24273;SDS011;12392;42.678;23.380;2023-04-15T07:21:15;3.97;;;1.60;;
24273;SDS011;12392;42.678;23.380;2023-04-15T07:23:41;2.80;;;1.90;;
24273;SDS011;12392;42.678;23.380;2023-04-15T07:26:07;3.75;;;1.73;;
24273;SDS011;12392;42.678;23.380;2023-04-15T07:28:33;4.15;;;1.70;;
24273;SDS011;12392;42.678;23.380;2023-04-15T07:30:59;2.95;;;1.80;;
24273;SDS011;12392;42.678;23.380;2023-04-15T07:33:25;6.07;;;2.20;;
24273;SDS011;12392;42.678;23.380;2023-04-15T07:35:51;4.07;;;2.28;;
24273;SDS011;12392;42.678;23.380;2023-04-15T07:38:17;7.75;;;2.25;;
24273;SDS011;12392;42.678;23.380;2023-04-15T07:40:42;5.65;;;2.17;;
24273;SDS011;12392;42.678;23.380;2023-04-15T07:43:08;5.03;;;2.17;;
24273;SDS011;12392;42.678;23.380;2023-04-15T07:45:34;4.70;;;2.40;;
24273;SDS011;12392;42.678;23.380;2023-04-15T07:48:00;6.30;;;2.47;;
24273;SDS011;12392;42.678;23.380;2023-04-15T07:50:27;4.13;;;2.13;;
24273;SDS011;12392;42.678;23.380;2023-04-15T07:52:53;5.90;;;2.35;;
24273;SDS011;12392;42.678;23.380;2023-04-15T07:55:18;3.50;;;2.17;;
24273;SDS011;12392;42.678;23.380;2023-04-15T07:57:47;8.30;;;2.70;;
24273;SDS011;12392;42.678;23.380;2023-04-15T08:00:13;6.28;;;2.42;;
24273;SDS011;12392;42.678;23.380;2023-04-15T08:02:40;3.10;;;2.35;;
24273;SDS011;12392;42.678;23.380;2023-04-15T08:05:06;3.97;;;2.47;;
24273;SDS011;12392;42.678;23.380;2023-04-15T08:07:33;4.35;;;2.30;;
24273;SDS011;12392;42.678;23.380;2023-04-15T08:10:00;3.65;;;2.38;;
24273;SDS011;12392;42.678;23.380;2023-04-15T08:12:26;5.47;;;2.08;;
24273;SDS011;12392;42.678;23.380;2023-04-15T08:14:51;5.57;;;2.35;;
24273;SDS011;12392;42.678;23.380;2023-04-15T08:17:17;8.07;;;2.05;;
24273;SDS011;12392;42.678;23.380;2023-04-15T08:19:43;4.88;;;2.22;;
24273;SDS011;12392;42.678;23.380;2023-04-15T08:22:09;6.57;;;2.20;;
24273;SDS011;12392;42.678;23.380;2023-04-15T08:24:36;3.08;;;1.90;;
24273;SDS011;12392;42.678;23.380;2023-04-15T08:27:02;3.75;;;2.03;;
24273;SDS011;12392;42.678;23.380;2023-04-15T08:29:29;4.18;;;2.28;;
24273;SDS011;12392;42.678;23.380;2023-04-15T08:31:56;4.18;;;2.28;;
24273;SDS011;12392;42.678;23.380;2023-04-15T08:34:22;3.78;;;2.20;;
24273;SDS011;12392;42.678;23.380;2023-04-15T08:36:48;7.78;;;2.25;;
24273;SDS011;12392;42.678;23.380;2023-04-15T08:39:13;6.03;;;2.13;;
24273;SDS011;12392;42.678;23.380;2023-04-15T08:41:40;3.30;;;2.05;;
24273;SDS011;12392;42.678;23.380;2023-04-15T08:44:34;4.55;;;2.60;;
24273;SDS011;12392;42.678;23.380;2023-04-15T08:47:02;3.58;;;2.38;;
24273;SDS011;12392;42.678;23.380;2023-04-15T08:49:29;3.78;;;2.03;;
24273;SDS011;12392;42.678;23.380;2023-04-15T08:51:59;7.13;;;2.05;;
24273;SDS011;12392;42.678;23.380;2023-04-15T08:54:25;6.35;;;2.03;;
24273;SDS011;12392;42.678;23.380;2023-04-15T08:56:52;4.10;;;2.15;;
24273;SDS011;12392;42.678;23.380;2023-04-15T08:59:18;4.65;;;1.50;;
24273;SDS011;12392;42.678;23.380;2023-04-15T09:01:46;3.20;;;1.23;;
24273;SDS011;12392;42.678;23.380;2023-04-15T09:04:12;2.40;;;1.50;;
24273;SDS011;12392;42.678;23.380;2023-04-15T09:06:38;4.60;;;1.70;;
24273;SDS011;12392;42.678;23.380;2023-04-15T09:09:05;2.63;;;0.98;;
24273;SDS011;12392;42.678;23.380;2023-04-15T09:11:31;3.05;;;0.98;;
24273;SDS011;12392;42.678;23.380;2023-04-15T09:13:56;2.75;;;0.95;;
24273;SDS011;12392;42.678;23.380;2023-04-15T09:16:22;1.35;;;0.82;;
24273;SDS011;12392;42.678;23.380;2023-04-15T09:18:48;2.10;;;0.98;;
24273;SDS011;12392;42.678;23.380;2023-04-15T09:21:15;1.67;;;0.80;;
24273;SDS011;12392;42.678;23.380;2023-04-15T09:23:52;1.27;;;1.00;;
24273;SDS011;12392;42.678;23.380;2023-04-15T09:26:55;1.45;;;0.88;;
24273;SDS011;12392;42.678;23.380;2023-04-15T09:29:18;4.60;;;0.82;;
24273;SDS011;12392;42.678;23.380;2023-04-15T09:31:44;1.55;;;1.00;;
24273;SDS011;12392;42.678;23.380;2023-04-15T09:34:10;2.83;;;0.65;;
24273;SDS011;12392;42.678;23.380;2023-04-15T09:36:52;1.40;;;1.00;;
24273;SDS011;12392;42.678;23.380;2023-04-15T09:39:20;0.52;;;0.40;;
24273;SDS011;12392;42.678;23.380;2023-04-15T09:41:45;2.28;;;0.50;;
24273;SDS011;12392;42.678;23.380;2023-04-15T09:44:21;0.47;;;0.32;;
24273;SDS011;12392;42.678;23.380;2023-04-15T09:46:50;1.00;;;0.60;;
24273;SDS011;12392;42.678;23.380;2023-04-15T09:49:16;3.50;;;0.90;;
24273;SDS011;12392;42.678;23.380;2023-04-15T09:51:42;1.60;;;0.52;;
24273;SDS011;12392;42.678;23.380;2023-04-15T09:54:08;1.17;;;0.38;;
24273;SDS011;12392;42.678;23.380;2023-04-15T09:56:34;2.55;;;0.55;;
24273;SDS011;12392;42.678;23.380;2023-04-15T09:59:08;1.07;;;0.50;;
24273;SDS011;12392;42.678;23.380;2023-04-15T10:01:34;1.05;;;0.60;;
24273;SDS011;12392;42.678;23.380;2023-04-15T10:04:04;1.92;;;0.60;;
24273;SDS011;12392;42.678;23.380;2023-04-15T10:06:30;3.92;;;0.60;;
24273;SDS011;12392;42.678;23.380;2023-04-15T10:08:57;1.67;;;0.60;;
24273;SDS011;12392;42.678;23.380;2023-04-15T10:11:23;5.15;;;0.60;;
24273;SDS011;12392;42.678;23.380;2023-04-15T10:13:50;3.15;;;1.30;;
24273;SDS011;12392;42.678;23.380;2023-04-15T10:16:18;0.68;;;0.50;;
24273;SDS011;12392;42.678;23.380;2023-04-15T10:18:46;4.93;;;0.50;;
24273;SDS011;12392;42.678;23.380;2023-04-15T10:21:13;2.03;;;0.60;;
24273;SDS011;12392;42.678;23.380;2023-04-15T10:23:42;0.70;;;0.55;;
24273;SDS011;12392;42.678;23.380;2023-04-15T10:26:11;0.93;;;0.63;;
24273;SDS011;12392;42.678;23.380;2023-04-15T10:28:39;2.75;;;0.70;;
24273;SDS011;12392;42.678;23.380;2023-04-15T10:31:05;3.00;;;0.60;;
24273;SDS011;12392;42.678;23.380;2023-04-15T10:33:31;1.63;;;1.13;;
24273;SDS011;12392;42.678;23.380;2023-04-15T10:35:58;1.92;;;0.80;;
24273;SDS011;12392;42.678;23.380;2023-04-15T10:41:18;2.10;;;0.55;;
24273;SDS011;12392;42.678;23.380;2023-04-15T10:46:38;1.02;;;0.70;;
24273;SDS011;12392;42.678;23.380;2023-04-15T10:49:11;0.88;;;0.70;;
24273;SDS011;12392;42.678;23.380;2023-04-15T10:51:41;1.45;;;0.75;;
24273;SDS011;12392;42.678;23.380;2023-04-15T10:54:13;2.38;;;0.60;;
24273;SDS011;12392;42.678;23.380;2023-04-15T10:56:40;2.92;;;0.60;;
24273;SDS011;12392;42.678;23.380;2023-04-15T10:59:08;7.07;;;0.60;;
24273;SDS011;12392;42.678;23.380;2023-04-15T11:04:55;2.38;;;0.63;;
24273;SDS011;12392;42.678;23.380;2023-04-15T11:07:38;3.50;;;0.70;;
24273;SDS011;12392;42.678;23.380;2023-04-15T11:12:45;0.68;;;0.55;;
24273;SDS011;12392;42.678;23.380;2023-04-15T11:15:29;0.70;;;0.50;;
24273;SDS011;12392;42.678;23.380;2023-04-15T11:17:58;0.77;;;0.45;;
24273;SDS011;12392;42.678;23.380;2023-04-15T11:20:33;2.33;;;0.60;;
24273;SDS011;12392;42.678;23.380;2023-04-15T11:23:00;1.17;;;0.60;;
24273;SDS011;12392;42.678;23.380;2023-04-15T11:25:26;1.00;;;0.52;;
24273;SDS011;12392;42.678;23.380;2023-04-15T11:27:53;3.10;;;0.60;;
24273;SDS011;12392;42.678;23.380;2023-04-15T11:30:23;4.88;;;0.70;;
24273;SDS011;12392;42.678;23.380;2023-04-15T11:32:51;1.15;;;0.50;;
24273;SDS011;12392;42.678;23.380;2023-04-15T11:35:17;2.50;;;0.77;;
24273;SDS011;12392;42.678;23.380;2023-04-15T11:37:47;2.05;;;1.00;;
24273;SDS011;12392;42.678;23.380;2023-04-15T11:40:14;4.20;;;0.70;;
24273;SDS011;12392;42.678;23.380;2023-04-15T11:42:41;3.00;;;0.77;;
24273;SDS011;12392;42.678;23.380;2023-04-15T11:45:12;1.25;;;0.43;;
24273;SDS011;12392;42.678;23.380;2023-04-15T11:47:39;2.28;;;0.90;;
24273;SDS011;12392;42.678;23.380;2023-04-15T11:50:19;1.40;;;0.50;;
24273;SDS011;12392;42.678;23.380;2023-04-15T11:52:52;1.75;;;0.68;;
24273;SDS011;12392;42.678;23.380;2023-04-15T11:55:22;2.80;;;0.70;;
24273;SDS011;12392;42.678;23.380;2023-04-15T12:00:33;1.83;;;0.70;;
24273;SDS011;12392;42.678;23.380;2023-04-15T12:03:16;2.78;;;0.88;;
24273;SDS011;12392;42.678;23.380;2023-04-15T12:16:35;1.17;;;0.68;;
24273;SDS011;12392;42.678;23.380;2023-04-15T12:19:09;1.75;;;0.70;;
24273;SDS011;12392;42.678;23.380;2023-04-15T12:21:37;1.85;;;0.73;;
24273;SDS011;12392;42.678;23.380;2023-04-15T12:24:05;0.65;;;0.43;;
24273;SDS011;12392;42.678;23.380;2023-04-15T12:29:17;0.98;;;0.20;;
24273;SDS011;12392;42.678;23.380;2023-04-15T12:31:57;2.58;;;0.40;;
24273;SDS011;12392;42.678;23.380;2023-04-15T12:34:30;2.10;;;0.30;;
24273;SDS011;12392;42.678;23.380;2023-04-15T12:36:57;0.60;;;0.50;;
24273;SDS011;12392;42.678;23.380;2023-04-15T12:39:27;0.70;;;0.40;;
24273;SDS011;12392;42.678;23.380;2023-04-15T12:41:54;1.75;;;0.40;;
24273;SDS011;12392;42.678;23.380;2023-04-15T12:44:21;0.95;;;0.50;;
24273;SDS011;12392;42.678;23.380;2023-04-15T12:46:48;1.50;;;0.40;;
24273;SDS011;12392;42.678;23.380;2023-04-15T12:49:17;0.30;;;0.30;;
24273;SDS011;12392;42.678;23.380;2023-04-15T12:51:49;0.98;;;0.30;;
24273;SDS011;12392;42.678;23.380;2023-04-15T12:54:17;2.80;;;0.40;;
24273;SDS011;12392;42.678;23.380;2023-04-15T12:56:43;0.43;;;0.38;;
24273;SDS011;12392;42.678;23.380;2023-04-15T12:59:10;0.82;;;0.40;;
24273;SDS011;12392;42.678;23.380;2023-04-15T13:01:36;0.80;;;0.30;;
24273;SDS011;12392;42.678;23.380;2023-04-15T13:04:02;0.55;;;0.43;;
24273;SDS011;12392;42.678;23.380;2023-04-15T13:06:28;1.48;;;0.60;;
24273;SDS011;12392;42.678;23.380;2023-04-15T13:08:56;1.85;;;0.35;;
24273;SDS011;12392;42.678;23.380;2023-04-15T13:11:23;0.50;;;0.30;;
24273;SDS011;12392;42.678;23.380;2023-04-15T13:13:49;3.53;;;0.50;;
24273;SDS011;12392;42.678;23.380;2023-04-15T13:16:16;0.85;;;0.30;;
24273;SDS011;12392;42.678;23.380;2023-04-15T13:18:43;0.35;;;0.22;;
24273;SDS011;12392;42.678;23.380;2023-04-15T13:21:10;2.83;;;0.63;;
24273;SDS011;12392;42.678;23.380;2023-04-15T13:23:36;0.30;;;0.20;;
24273;SDS011;12392;42.678;23.380;2023-04-15T13:26:02;0.80;;;0.30;;
24273;SDS011;12392;42.678;23.380;2023-04-15T13:28:28;0.50;;;0.22;;
24273;SDS011;12392;42.678;23.380;2023-04-15T13:30:53;0.50;;;0.40;;
24273;SDS011;12392;42.678;23.380;2023-04-15T13:33:19;0.40;;;0.22;;
24273;SDS011;12392;42.678;23.380;2023-04-15T13:35:45;1.67;;;0.32;;
24273;SDS011;12392;42.678;23.380;2023-04-15T13:38:11;1.27;;;0.32;;
24273;SDS011;12392;42.678;23.380;2023-04-15T13:40:37;0.77;;;0.30;;
24273;SDS011;12392;42.678;23.380;2023-04-15T13:43:02;1.08;;;0.30;;
24273;SDS011;12392;42.678;23.380;2023-04-15T13:45:28;1.27;;;0.35;;
24273;SDS011;12392;42.678;23.380;2023-04-15T13:47:55;0.75;;;0.30;;
24273;SDS011;12392;42.678;23.380;2023-04-15T13:50:21;0.55;;;0.32;;
24273;SDS011;12392;42.678;23.380;2023-04-15T13:52:47;1.35;;;0.43;;
24273;SDS011;12392;42.678;23.380;2023-04-15T13:55:12;0.22;;;0.22;;
24273;SDS011;12392;42.678;23.380;2023-04-15T13:57:38;0.28;;;0.22;;
24273;SDS011;12392;42.678;23.380;2023-04-15T14:00:04;0.75;;;0.30;;
24273;SDS011;12392;42.678;23.380;2023-04-15T14:02:30;0.95;;;0.40;;
24273;SDS011;12392;42.678;23.380;2023-04-15T14:04:56;0.75;;;0.40;;
24273;SDS011;12392;42.678;23.380;2023-04-15T14:07:22;0.35;;;0.35;;
24273;SDS011;12392;42.678;23.380;2023-04-15T14:09:47;3.20;;;0.30;;
24273;SDS011;12392;42.678;23.380;2023-04-15T14:12:13;1.48;;;0.40;;
24273;SDS011;12392;42.678;23.380;2023-04-15T14:14:39;1.98;;;0.30;;
24273;SDS011;12392;42.678;23.380;2023-04-15T14:17:05;3.05;;;0.30;;
24273;SDS011;12392;42.678;23.380;2023-04-15T14:19:31;1.83;;;0.30;;
24273;SDS011;12392;42.678;23.380;2023-04-15T14:21:57;0.75;;;0.30;;
24273;SDS011;12392;42.678;23.380;2023-04-15T14:24:23;0.82;;;0.30;;
24273;SDS011;12392;42.678;23.380;2023-04-15T14:26:49;0.50;;;0.30;;
24273;SDS011;12392;42.678;23.380;2023-04-15T14:29:14;3.03;;;0.60;;
24273;SDS011;12392;42.678;23.380;2023-04-15T14:31:40;0.80;;;0.40;;
24273;SDS011;12392;42.678;23.380;2023-04-15T14:34:08;1.17;;;0.50;;
24273;SDS011;12392;42.678;23.380;2023-04-15T14:36:34;2.75;;;0.47;;
24273;SDS011;12392;42.678;23.380;2023-04-15T14:39:00;1.33;;;0.47;;
24273;SDS011;12392;42.678;23.380;2023-04-15T14:41:26;2.38;;;0.63;;
24273;SDS011;12392;42.678;23.380;2023-04-15T14:43:51;1.10;;;0.40;;
24273;SDS011;12392;42.678;23.380;2023-04-15T14:46:17;2.75;;;0.55;;
24273;SDS011;12392;42.678;23.380;2023-04-15T14:48:43;1.38;;;0.70;;
24273;SDS011;12392;42.678;23.380;2023-04-15T14:51:09;0.38;;;0.38;;
24273;SDS011;12392;42.678;23.380;2023-04-15T14:53:34;0.57;;;0.50;;
24273;SDS011;12392;42.678;23.380;2023-04-15T14:56:00;2.03;;;0.43;;
24273;SDS011;12392;42.678;23.380;2023-04-15T14:58:26;1.48;;;0.50;;